Time;durP1;ratioP1;P1;durP2;ratioP2;P2;SDS_P1;SDS_P2;PMS_P1;PMS_P2;Temp;Humidity;BMP_temperature;BMP_pressure;BME280_temperature;BME280_humidity;BME280_pressure;Samples;Min_cycle;Max_cycle;Signal;HPM_P1;HPM_P2
2022/12/26 00:01:21;;;;;;;;;;;34.50;90.50;;;;;;5016580;28;19913;-75
2022/12/26 00:03:48;;;;;;;;;;;34.40;90.30;;;;;;5004884;28;19913;-75
2022/12/26 00:06:16;;;;;;;;;;;33.90;89.90;;;;;;5018997;28;20363;-72
2022/12/26 00:08:43;;;;;;;;;;;33.70;89.60;;;;;;5007384;28;19914;-72
2022/12/26 00:11:10;;;;;;;;;;;33.70;88.60;;;;;;5024155;28;19917;-70
2022/12/26 00:13:39;;;;;;;;;;;33.90;88.40;;;;;;5016502;28;19974;-73
2022/12/26 00:16:10;;;;;;;;;;;34.00;88.40;;;;;;4999562;28;19925;-71
2022/12/26 00:18:37;;;;;;;;;;;34.10;88.00;;;;;;5005479;28;19921;-71
2022/12/26 00:21:04;;;;;;;;;;;34.20;87.80;;;;;;5018169;28;20039;-73
2022/12/26 00:23:33;;;;;;;;;;;34.40;86.70;;;;;;5032476;28;19921;-74
2022/12/26 00:26:08;;;;;;;;;;;34.60;86.00;;;;;;5018628;28;19921;-78
2022/12/26 00:28:37;;;;;;;;;;;34.50;86.40;;;;;;5028299;28;19945;-72
2022/12/26 00:31:05;;;;;;;;;;;34.50;85.80;;;;;;5032371;28;19914;-73
2022/12/26 00:33:35;;;;;;;;;;;34.80;87.00;;;;;;5027729;28;19917;-76
2022/12/26 00:36:03;;;;;;;;;;;35.20;85.20;;;;;;5012755;28;20256;-70
2022/12/26 00:38:30;;;;;;;;;;;35.60;86.60;;;;;;5023696;28;20438;-70
2022/12/26 00:40:57;;;;;;;;;;;35.80;85.70;;;;;;5030703;28;19925;-71
2022/12/26 00:43:23;;;;;;;;;;;36.10;82.60;;;;;;5031860;28;20313;-81
2022/12/26 00:45:50;;;;;;;;;;;36.00;81.50;;;;;;5030433;28;19944;-76
2022/12/26 00:48:17;;;;;;;;;;;36.10;80.70;;;;;;5029958;28;20003;-78
2022/12/26 00:50:43;;;;;;;;;;;36.00;79.20;;;;;;5029029;28;20016;-76
2022/12/26 00:53:10;;;;;;;;;;;36.00;81.10;;;;;;5026829;28;19952;-78
2022/12/26 00:55:37;;;;;;;;;;;36.10;81.10;;;;;;5028469;28;19913;-77
2022/12/26 00:58:04;;;;;;;;;;;36.30;79.40;;;;;;5027541;28;19947;-75
2022/12/26 01:00:31;;;;;;;;;;;36.20;78.80;;;;;;5024340;28;20055;-71
2022/12/26 01:02:58;;;;;;;;;;;36.10;78.40;;;;;;5024439;28;19913;-72
2022/12/26 01:05:25;;;;;;;;;;;36.10;79.40;;;;;;5018917;28;20395;-72
2022/12/26 01:07:52;;;;;;;;;;;36.30;74.20;;;;;;5015232;28;19913;-76
2022/12/26 01:10:19;;;;;;;;;;;36.30;72.00;;;;;;5031968;28;20283;-72
2022/12/26 01:12:45;;;;;;;;;;;36.60;72.40;;;;;;5027858;28;20604;-71
2022/12/26 01:15:12;;;;;;;;;;;36.80;72.20;;;;;;5031920;28;19918;-75
2022/12/26 01:17:39;;;;;;;;;;;37.00;71.60;;;;;;5029099;28;19921;-71
2022/12/26 01:20:05;;;;;;;;;;;36.90;72.40;;;;;;5031939;28;19917;-70
2022/12/26 01:22:32;;;;;;;;;;;37.10;70.10;;;;;;5029572;28;19944;-69
2022/12/26 01:24:59;;;;;;;;;;;37.20;70.20;;;;;;5019495;28;19920;-70
2022/12/26 01:27:26;;;;;;;;;;;37.40;70.40;;;;;;5029643;28;19917;-73
2022/12/26 01:29:53;;;;;;;;;;;37.50;69.40;;;;;;5028875;28;19928;-71
2022/12/26 01:32:19;;;;;;;;;;;37.60;68.50;;;;;;5029890;28;19917;-76
2022/12/26 01:34:46;;;;;;;;;;;37.70;69.80;;;;;;5028369;28;19917;-71
2022/12/26 01:37:13;;;;;;;;;;;38.00;69.80;;;;;;5026050;28;19921;-71
2022/12/26 01:39:40;;;;;;;;;;;38.10;69.50;;;;;;5023857;28;20341;-72
2022/12/26 01:42:14;;;;;;;;;;;38.10;67.30;;;;;;5030192;28;19913;-74
2022/12/26 01:45:01;;;;;;;;;;;38.10;64.90;;;;;;5012877;28;20403;-70
2022/12/26 01:47:48;;;;;;;;;;;38.30;65.90;;;;;;5036699;28;19967;-71
2022/12/26 01:50:20;;;;;;;;;;;38.60;68.60;;;;;;5017112;28;19913;-75
2022/12/26 01:52:47;;;;;;;;;;;38.90;65.50;;;;;;5016648;28;19927;-74
2022/12/26 01:55:16;;;;;;;;;;;39.00;67.40;;;;;;5025059;28;19913;-71
2022/12/26 01:57:44;;;;;;;;;;;39.20;68.10;;;;;;5025579;28;19921;-73
2022/12/26 02:00:12;;;;;;;;;;;38.90;65.70;;;;;;5018647;28;20367;-75
2022/12/26 02:05:33;;;;;;;;;;;38.40;65.80;;;;;;5027671;28;20002;-73
2022/12/26 02:08:01;;;;;;;;;;;38.40;64.70;;;;;;5025741;28;19917;-71
2022/12/26 02:10:28;;;;;;;;;;;38.60;67.00;;;;;;5027690;28;20039;-71
2022/12/26 02:12:55;;;;;;;;;;;39.00;68.20;;;;;;5027731;28;19968;-73
2022/12/26 02:15:21;;;;;;;;;;;39.20;66.40;;;;;;5020082;28;20007;-70
2022/12/26 02:17:48;;;;;;;;;;;38.60;67.60;;;;;;5027075;28;20285;-72
2022/12/26 02:20:28;;;;;;;;;;;38.00;68.60;;;;;;5030044;28;19921;-70
2022/12/26 02:23:19;;;;;;;;;;;38.10;69.30;;;;;;5028506;28;19967;-73
2022/12/26 02:26:11;;;;;;;;;;;38.40;70.80;;;;;;5026920;28;19967;-72
2022/12/26 02:28:55;;;;;;;;;;;38.60;69.70;;;;;;5035469;28;20453;-75
2022/12/26 02:31:25;;;;;;;;;;;38.80;68.40;;;;;;5038923;28;19913;-72
2022/12/26 02:33:58;;;;;;;;;;;38.70;69.00;;;;;;5027143;28;19916;-69
2022/12/26 02:36:36;;;;;;;;;;;38.50;67.10;;;;;;5031480;28;20015;-70
2022/12/26 02:39:20;;;;;;;;;;;38.30;66.80;;;;;;5024722;28;20286;-69
2022/12/26 02:41:55;;;;;;;;;;;38.20;64.10;;;;;;5030808;28;20018;-69
2022/12/26 02:47:15;;;;;;;;;;;38.80;66.50;;;;;;5053460;28;20358;-72
2022/12/26 03:15:16;;;;;;;;;;;39.20;67.30;;;;;;5038557;28;20378;-71
2022/12/26 03:18:14;;;;;;;;;;;39.30;66.50;;;;;;5050551;28;19920;-71
2022/12/26 03:20:41;;;;;;;;;;;39.30;64.40;;;;;;4978172;28;19913;-71
2022/12/26 03:23:12;;;;;;;;;;;39.50;64.90;;;;;;5031968;28;20272;-70
2022/12/26 03:28:27;;;;;;;;;;;39.50;62.50;;;;;;5030013;28;19924;-69
2022/12/26 03:30:55;;;;;;;;;;;39.60;62.40;;;;;;5033663;28;19917;-72
2022/12/26 03:36:13;;;;;;;;;;;39.30;58.70;;;;;;5036645;28;19974;-70
2022/12/26 03:38:57;;;;;;;;;;;38.90;59.30;;;;;;5030010;28;19963;-70
2022/12/26 04:19:37;;;;;;;;;;;38.50;54.60;;;;;;5036376;28;19967;-70
2022/12/26 04:44:32;;;;;;;;;;;37.50;53.20;;;;;;5010702;28;19952;-78
2022/12/26 04:46:59;;;;;;;;;;;37.20;54.20;;;;;;5010278;28;19914;-75
2022/12/26 04:52:17;;;;;;;;;;;37.30;53.60;;;;;;5004936;28;19963;-70
2022/12/26 04:54:44;;;;;;;;;;;37.20;54.50;;;;;;5010803;28;19945;-74
2022/12/26 04:57:11;;;;;;;;;;;37.40;54.40;;;;;;5004106;28;19980;-72
2022/12/26 04:59:37;;;;;;;;;;;37.50;54.00;;;;;;4999578;28;20268;-71
2022/12/26 05:10:24;;;;;;;;;;;37.30;54.30;;;;;;4998110;28;19956;-74
2022/12/26 05:12:51;;;;;;;;;;;37.30;54.40;;;;;;5001844;28;20324;-70
2022/12/26 05:15:18;;;;;;;;;;;37.10;54.60;;;;;;5002960;28;21698;-73
2022/12/26 05:28:42;;;;;;;;;;;36.80;54.70;;;;;;5002432;28;19940;-71
2022/12/26 05:31:15;;;;;;;;;;;36.80;54.20;;;;;;5007162;28;19968;-71
2022/12/26 05:36:46;;;;;;;;;;;36.80;53.40;;;;;;4994682;28;20338;-72
2022/12/26 05:39:13;;;;;;;;;;;36.80;52.50;;;;;;4998742;28;19914;-72
2022/12/26 05:41:39;;;;;;;;;;;36.60;53.40;;;;;;5006489;28;20419;-72
2022/12/26 05:44:06;;;;;;;;;;;36.50;53.90;;;;;;5006933;28;20005;-69
2022/12/26 05:46:33;;;;;;;;;;;36.30;54.00;;;;;;5011254;28;19965;-69
2022/12/26 05:49:00;;;;;;;;;;;36.20;54.00;;;;;;4998466;28;20272;-68
2022/12/26 05:51:27;;;;;;;;;;;36.10;53.10;;;;;;5006612;28;19968;-69
2022/12/26 05:53:53;;;;;;;;;;;36.10;54.30;;;;;;5004010;28;20020;-69
2022/12/26 05:56:21;;;;;;;;;;;36.00;53.90;;;;;;5009975;28;19961;-71
2022/12/26 05:58:52;;;;;;;;;;;36.00;53.60;;;;;;5010309;28;20327;-68
2022/12/26 06:01:19;;;;;;;;;;;35.90;54.10;;;;;;5005982;28;19920;-69
2022/12/26 06:03:48;;;;;;;;;;;35.70;54.40;;;;;;4999840;28;19918;-69
2022/12/26 06:06:15;;;;;;;;;;;35.50;53.80;;;;;;5008931;28;19921;-68
2022/12/26 06:08:42;;;;;;;;;;;35.40;54.80;;;;;;4990677;28;19924;-68
2022/12/26 06:11:10;;;;;;;;;;;35.30;54.40;;;;;;5001169;28;19921;-69
2022/12/26 06:13:37;;;;;;;;;;;35.20;55.00;;;;;;5003071;28;19921;-69
2022/12/26 06:16:08;;;;;;;;;;;35.20;54.60;;;;;;5010437;28;19917;-73
2022/12/26 06:18:35;;;;;;;;;;;35.20;55.20;;;;;;5002417;28;19920;-70
2022/12/26 06:21:06;;;;;;;;;;;35.20;55.80;;;;;;5010586;28;19917;-71
2022/12/26 06:23:37;;;;;;;;;;;35.20;56.20;;;;;;5027228;28;20059;-73
2022/12/26 06:26:04;;;;;;;;;;;35.00;55.10;;;;;;5020450;28;20004;-72
2022/12/26 06:28:32;;;;;;;;;;;34.80;55.50;;;;;;5021289;28;19924;-70
2022/12/26 06:31:06;;;;;;;;;;;34.70;56.10;;;;;;5030323;28;19920;-70
2022/12/26 06:33:33;;;;;;;;;;;34.70;56.60;;;;;;5027129;28;19917;-70
2022/12/26 06:36:06;;;;;;;;;;;34.60;56.50;;;;;;5029429;28;20420;-70
2022/12/26 06:38:33;;;;;;;;;;;34.40;56.80;;;;;;5031818;28;19921;-72
2022/12/26 06:41:00;;;;;;;;;;;34.20;55.40;;;;;;5027550;28;19956;-73
2022/12/26 06:43:27;;;;;;;;;;;34.20;55.60;;;;;;5022140;28;19918;-70
2022/12/26 06:45:57;;;;;;;;;;;34.20;55.50;;;;;;5029317;28;19917;-73
2022/12/26 06:48:24;;;;;;;;;;;34.20;56.50;;;;;;5025228;28;20288;-71
2022/12/26 06:50:53;;;;;;;;;;;34.20;57.50;;;;;;5034161;28;19955;-68
2022/12/26 06:53:20;;;;;;;;;;;34.20;57.50;;;;;;5027062;28;19917;-70
2022/12/26 06:55:47;;;;;;;;;;;34.20;57.20;;;;;;5013366;28;19917;-71
2022/12/26 06:58:14;;;;;;;;;;;34.00;56.30;;;;;;5026106;28;20008;-71
2022/12/26 07:00:41;;;;;;;;;;;33.90;56.20;;;;;;5027449;28;20438;-69
2022/12/26 07:03:08;;;;;;;;;;;33.80;59.10;;;;;;5028498;28;19912;-70
2022/12/26 07:05:38;;;;;;;;;;;33.50;58.40;;;;;;5030964;28;19923;-69
2022/12/26 07:08:05;;;;;;;;;;;33.30;58.10;;;;;;5030226;28;19926;-70
2022/12/26 07:10:35;;;;;;;;;;;33.20;58.30;;;;;;5024539;28;19929;-70
2022/12/26 07:13:02;;;;;;;;;;;33.30;58.30;;;;;;5021330;28;19916;-70
2022/12/26 07:15:29;;;;;;;;;;;33.30;58.20;;;;;;5036771;28;20352;-73
2022/12/26 07:17:55;;;;;;;;;;;33.30;59.70;;;;;;5039565;28;19928;-73
2022/12/26 07:20:22;;;;;;;;;;;33.20;60.20;;;;;;5024055;28;19914;-72
2022/12/26 07:22:49;;;;;;;;;;;33.00;60.00;;;;;;5031587;28;19924;-72
2022/12/26 07:25:17;;;;;;;;;;;32.90;59.90;;;;;;5027600;28;20279;-69
2022/12/26 07:27:43;;;;;;;;;;;32.80;61.00;;;;;;5029325;28;19959;-69
2022/12/26 07:30:10;;;;;;;;;;;32.70;61.20;;;;;;5028050;28;20004;-71
2022/12/26 07:32:41;;;;;;;;;;;32.50;61.10;;;;;;5015442;28;19917;-69
2022/12/26 07:35:08;;;;;;;;;;;32.40;61.40;;;;;;5025119;28;19913;-72
2022/12/26 07:37:35;;;;;;;;;;;32.40;62.10;;;;;;5029620;28;20020;-70
2022/12/26 07:40:02;;;;;;;;;;;32.30;62.60;;;;;;5027458;28;20004;-69
2022/12/26 07:42:28;;;;;;;;;;;32.10;62.70;;;;;;5024486;28;19959;-69
2022/12/26 07:44:58;;;;;;;;;;;31.90;62.70;;;;;;5036310;28;19936;-72
2022/12/26 07:47:25;;;;;;;;;;;31.90;63.20;;;;;;5015178;28;20395;-70
2022/12/26 07:49:51;;;;;;;;;;;31.70;63.70;;;;;;5025457;28;19999;-69
2022/12/26 07:52:18;;;;;;;;;;;31.60;63.60;;;;;;5025363;28;19917;-72
2022/12/26 07:54:45;;;;;;;;;;;31.60;63.50;;;;;;5028031;28;19917;-73
2022/12/26 07:57:12;;;;;;;;;;;31.50;63.60;;;;;;5025225;28;20451;-71
2022/12/26 07:59:38;;;;;;;;;;;31.40;63.60;;;;;;5030520;28;20337;-72
2022/12/26 08:02:05;;;;;;;;;;;31.30;63.00;;;;;;5017971;28;20364;-72
2022/12/26 08:04:32;;;;;;;;;;;31.30;62.70;;;;;;5016768;28;19914;-70
2022/12/26 08:06:59;;;;;;;;;;;31.10;63.20;;;;;;5038848;28;19920;-71
2022/12/26 08:09:26;;;;;;;;;;;31.00;63.90;;;;;;5007263;28;19916;-73
2022/12/26 08:11:52;;;;;;;;;;;30.90;64.50;;;;;;5026858;28;19917;-71
2022/12/26 08:14:19;;;;;;;;;;;30.80;64.50;;;;;;5030367;28;20371;-73
2022/12/26 08:16:46;;;;;;;;;;;30.70;64.20;;;;;;5025315;28;20355;-70
2022/12/26 08:19:12;;;;;;;;;;;30.60;64.40;;;;;;5024134;28;20321;-72
2022/12/26 08:21:39;;;;;;;;;;;30.50;64.70;;;;;;5022342;28;19964;-69
2022/12/26 08:24:06;;;;;;;;;;;30.40;65.00;;;;;;5007372;28;19920;-71
2022/12/26 08:26:33;;;;;;;;;;;30.30;65.50;;;;;;5012898;28;20007;-70
2022/12/26 08:28:59;;;;;;;;;;;30.20;66.00;;;;;;5015835;28;20300;-73
2022/12/26 08:31:26;;;;;;;;;;;30.10;66.10;;;;;;5010940;28;19967;-72
2022/12/26 08:33:55;;;;;;;;;;;30.00;64.90;;;;;;4999398;28;19975;-72
2022/12/26 08:36:22;;;;;;;;;;;29.90;65.30;;;;;;5012715;28;19917;-72
2022/12/26 08:38:49;;;;;;;;;;;29.80;63.70;;;;;;5003198;28;19960;-72
2022/12/26 08:41:19;;;;;;;;;;;29.70;62.80;;;;;;4995861;28;19914;-72
2022/12/26 08:43:49;;;;;;;;;;;29.50;62.70;;;;;;5002119;28;19918;-73
2022/12/26 08:46:16;;;;;;;;;;;29.40;62.30;;;;;;5011044;28;19920;-72
2022/12/26 08:48:43;;;;;;;;;;;29.40;62.60;;;;;;5007386;28;20315;-70
2022/12/26 08:51:17;;;;;;;;;;;29.30;63.00;;;;;;5010501;28;19968;-72
2022/12/26 08:53:45;;;;;;;;;;;29.10;63.60;;;;;;5016248;28;20276;-70
2022/12/26 08:56:13;;;;;;;;;;;29.00;64.20;;;;;;5006630;28;20037;-70
2022/12/26 08:58:40;;;;;;;;;;;28.90;64.80;;;;;;5011024;28;19945;-69
2022/12/26 09:01:15;;;;;;;;;;;28.80;65.00;;;;;;5017931;28;19913;-70
2022/12/26 09:03:42;;;;;;;;;;;28.70;65.50;;;;;;5009141;28;19918;-69
2022/12/26 09:06:09;;;;;;;;;;;28.60;66.00;;;;;;5030980;28;19913;-69
2022/12/26 09:08:37;;;;;;;;;;;28.50;66.30;;;;;;5021169;28;19939;-70
2022/12/26 09:11:10;;;;;;;;;;;28.50;66.60;;;;;;5007894;28;20304;-69
2022/12/26 09:13:38;;;;;;;;;;;28.40;67.00;;;;;;5014533;28;19913;-69
2022/12/26 09:16:09;;;;;;;;;;;28.20;67.30;;;;;;5027716;28;19957;-70
2022/12/26 09:18:36;;;;;;;;;;;28.10;67.70;;;;;;5010251;28;19917;-69
2022/12/26 09:21:03;;;;;;;;;;;28.00;68.30;;;;;;5023826;28;19922;-70
2022/12/26 09:23:31;;;;;;;;;;;27.90;69.00;;;;;;5015913;28;19917;-69
2022/12/26 09:26:05;;;;;;;;;;;27.80;69.50;;;;;;5024112;28;20422;-69
2022/12/26 09:28:32;;;;;;;;;;;27.70;70.10;;;;;;5030615;28;19936;-69
2022/12/26 09:30:59;;;;;;;;;;;27.50;70.40;;;;;;5037850;28;19920;-69
2022/12/26 09:33:32;;;;;;;;;;;27.60;70.60;;;;;;5021191;28;19926;-70
2022/12/26 09:35:59;;;;;;;;;;;27.50;71.30;;;;;;5024903;28;19913;-69
2022/12/26 09:38:26;;;;;;;;;;;27.40;71.50;;;;;;5027252;28;19945;-69
2022/12/26 09:41:10;;;;;;;;;;;27.30;72.30;;;;;;5029397;28;19913;-70
2022/12/26 09:43:47;;;;;;;;;;;27.10;72.10;;;;;;5018795;28;19919;-70
2022/12/26 09:46:26;;;;;;;;;;;27.00;73.20;;;;;;5024032;28;20350;-70
2022/12/26 09:48:58;;;;;;;;;;;26.80;74.10;;;;;;5028767;28;19913;-70
2022/12/26 09:51:26;;;;;;;;;;;26.80;73.40;;;;;;5029446;28;20270;-70
2022/12/26 09:53:53;;;;;;;;;;;26.70;73.80;;;;;;5026011;28;20260;-70
2022/12/26 09:56:21;;;;;;;;;;;26.60;73.90;;;;;;5028496;28;20375;-69
2022/12/26 09:58:49;;;;;;;;;;;26.60;74.20;;;;;;5022284;28;19956;-70
2022/12/26 10:01:22;;;;;;;;;;;26.50;74.40;;;;;;5030566;28;19967;-69
2022/12/26 10:03:51;;;;;;;;;;;26.40;75.30;;;;;;5021420;28;19909;-70
2022/12/26 10:06:23;;;;;;;;;;;26.40;75.10;;;;;;5023197;28;19924;-70
2022/12/26 10:09:01;;;;;;;;;;;26.30;75.70;;;;;;5024630;28;19917;-72
2022/12/26 10:11:43;;;;;;;;;;;26.20;76.30;;;;;;5012487;28;19921;-74
2022/12/26 10:14:27;;;;;;;;;;;26.20;76.70;;;;;;5016446;28;19908;-71
2022/12/26 10:16:57;;;;;;;;;;;26.10;76.70;;;;;;5048515;28;19932;-70
2022/12/26 10:19:42;;;;;;;;;;;26.10;76.60;;;;;;5022637;28;19919;-70
2022/12/26 10:22:15;;;;;;;;;;;26.00;77.30;;;;;;5040856;28;19925;-71
2022/12/26 10:24:42;;;;;;;;;;;25.90;77.60;;;;;;5025526;28;19996;-70
2022/12/26 10:27:14;;;;;;;;;;;25.80;77.70;;;;;;5025169;28;19921;-71
2022/12/26 10:29:46;;;;;;;;;;;25.80;77.60;;;;;;5019855;28;19940;-69
2022/12/26 10:32:16;;;;;;;;;;;25.80;77.80;;;;;;5022822;28;19939;-70
2022/12/26 10:34:45;;;;;;;;;;;25.70;78.20;;;;;;5012045;28;19964;-70
2022/12/26 10:37:40;;;;;;;;;;;25.70;78.60;;;;;;5029483;28;19926;-71
2022/12/26 10:40:19;;;;;;;;;;;25.60;78.70;;;;;;5012936;28;19917;-68
2022/12/26 10:42:49;;;;;;;;;;;25.50;78.90;;;;;;5013460;28;19975;-72
2022/12/26 10:45:17;;;;;;;;;;;25.40;79.30;;;;;;5010958;28;20359;-71
2022/12/26 10:47:49;;;;;;;;;;;25.30;79.40;;;;;;5026703;28;19936;-71
2022/12/26 10:50:17;;;;;;;;;;;25.30;79.80;;;;;;5030557;28;19913;-73
2022/12/26 10:52:44;;;;;;;;;;;25.20;80.20;;;;;;5026853;28;19955;-73
2022/12/26 10:55:14;;;;;;;;;;;25.20;80.40;;;;;;5030090;28;19967;-71
2022/12/26 10:57:42;;;;;;;;;;;25.10;80.40;;;;;;5029442;28;19921;-70
2022/12/26 11:00:19;;;;;;;;;;;25.00;80.80;;;;;;5012689;28;19917;-70
2022/12/26 11:02:59;;;;;;;;;;;25.00;81.40;;;;;;5024695;28;19917;-70
2022/12/26 11:05:26;;;;;;;;;;;24.90;81.70;;;;;;5011597;28;19928;-73
2022/12/26 11:07:55;;;;;;;;;;;24.90;81.60;;;;;;5026012;28;19917;-69
2022/12/26 11:10:24;;;;;;;;;;;24.90;81.90;;;;;;5029357;28;20425;-71
2022/12/26 11:12:52;;;;;;;;;;;24.80;82.20;;;;;;5023810;28;20462;-71
2022/12/26 11:15:22;;;;;;;;;;;24.70;82.60;;;;;;5023176;28;19917;-69
2022/12/26 11:17:50;;;;;;;;;;;24.70;83.10;;;;;;5026781;28;20428;-69
2022/12/26 11:20:17;;;;;;;;;;;24.70;83.70;;;;;;5019367;28;19921;-71
2022/12/26 11:22:44;;;;;;;;;;;24.60;83.60;;;;;;5028018;28;19925;-69
2022/12/26 11:25:18;;;;;;;;;;;24.70;83.70;;;;;;5028566;28;19974;-70
2022/12/26 11:27:53;;;;;;;;;;;24.60;83.90;;;;;;5028954;28;19913;-71
2022/12/26 11:30:22;;;;;;;;;;;24.60;84.40;;;;;;5024808;28;19922;-70
2022/12/26 11:33:08;;;;;;;;;;;24.50;84.70;;;;;;5026520;28;19917;-71
2022/12/26 11:35:37;;;;;;;;;;;24.40;85.10;;;;;;4990064;28;19913;-71
2022/12/26 11:38:12;;;;;;;;;;;24.50;85.70;;;;;;5030718;28;19921;-72
2022/12/26 11:41:30;;;;;;;;;;;24.40;86.30;;;;;;5015715;28;19959;-73
2022/12/26 11:43:32;;;;;;;;;;;24.30;86.80;;;;;;5030116;28;19924;-71
2022/12/26 11:45:59;;;;;;;;;;;24.10;87.70;;;;;;5031987;28;20103;-72
2022/12/26 11:48:26;;;;;;;;;;;24.10;88.80;;;;;;5030149;28;20530;-73
2022/12/26 11:50:53;;;;;;;;;;;24.00;89.40;;;;;;5032201;28;20282;-72
2022/12/26 11:53:21;;;;;;;;;;;23.90;89.70;;;;;;5024822;28;19941;-76
2022/12/26 11:55:58;;;;;;;;;;;23.90;90.10;;;;;;5026475;28;20371;-70
2022/12/26 11:58:28;;;;;;;;;;;23.80;90.30;;;;;;5028359;28;20050;-68
2022/12/26 12:01:00;;;;;;;;;;;23.70;90.50;;;;;;5029467;28;19962;-74
2022/12/26 12:03:31;;;;;;;;;;;23.70;90.70;;;;;;5020069;28;19920;-73
2022/12/26 12:05:57;;;;;;;;;;;23.60;90.60;;;;;;5026445;28;20256;-69
2022/12/26 12:08:27;;;;;;;;;;;23.50;90.60;;;;;;5024811;28;19917;-70
2022/12/26 12:10:59;;;;;;;;;;;23.40;90.80;;;;;;5015395;28;20032;-69
2022/12/26 12:13:28;;;;;;;;;;;23.30;91.00;;;;;;5022358;28;19997;-71
2022/12/26 12:16:04;;;;;;;;;;;23.20;91.30;;;;;;5022961;28;19945;-71
2022/12/26 12:18:31;;;;;;;;;;;23.10;91.50;;;;;;5029358;28;20314;-70
2022/12/26 12:20:57;;;;;;;;;;;23.10;91.60;;;;;;5029742;28;19924;-70
2022/12/26 12:23:36;;;;;;;;;;;23.00;91.90;;;;;;5029639;28;20338;-69
2022/12/26 12:26:03;;;;;;;;;;;23.00;92.10;;;;;;5024947;28;19913;-70
2022/12/26 12:28:39;;;;;;;;;;;23.00;92.50;;;;;;5024340;28;20379;-69
2022/12/26 12:31:12;;;;;;;;;;;23.00;92.80;;;;;;5022265;28;19914;-70
2022/12/26 12:33:39;;;;;;;;;;;22.90;92.90;;;;;;5019474;28;19963;-68
2022/12/26 12:36:18;;;;;;;;;;;22.90;93.20;;;;;;5030940;28;20364;-69
2022/12/26 12:38:44;;;;;;;;;;;22.80;93.20;;;;;;5027640;28;20441;-69
2022/12/26 12:41:29;;;;;;;;;;;22.70;93.30;;;;;;5031904;28;19920;-73
2022/12/26 12:44:02;;;;;;;;;;;22.60;93.60;;;;;;5028225;28;20065;-76
2022/12/26 12:46:29;;;;;;;;;;;22.50;94.20;;;;;;5031796;28;20426;-74
2022/12/26 12:49:03;;;;;;;;;;;22.40;95.10;;;;;;5029374;28;19953;-78
2022/12/26 12:51:30;;;;;;;;;;;22.40;95.60;;;;;;5031949;28;19936;-76
2022/12/26 12:53:57;;;;;;;;;;;22.40;96.10;;;;;;5020837;28;19914;-78
2022/12/26 12:56:23;;;;;;;;;;;22.30;96.50;;;;;;5031793;28;19971;-77
2022/12/26 12:59:06;;;;;;;;;;;22.30;96.80;;;;;;5020702;28;20015;-75
2022/12/26 13:01:37;;;;;;;;;;;22.20;97.10;;;;;;5026875;28;20294;-73
2022/12/26 13:04:04;;;;;;;;;;;22.10;97.60;;;;;;5019606;28;20458;-75
2022/12/26 13:06:35;;;;;;;;;;;22.10;98.40;;;;;;5024535;28;19971;-74
2022/12/26 13:09:02;;;;;;;;;;;22.10;99.10;;;;;;5009665;28;20359;-76
2022/12/26 13:11:34;;;;;;;;;;;22.10;99.50;;;;;;5031554;28;19939;-76
2022/12/26 13:14:01;;;;;;;;;;;22.10;99.90;;;;;;5028576;28;20287;-75
2022/12/26 13:16:42;;;;;;;;;;;22.10;99.90;;;;;;5030483;28;19917;-75
2022/12/26 13:19:16;;;;;;;;;;;22.10;99.90;;;;;;5018706;28;20352;-76
2022/12/26 13:21:43;;;;;;;;;;;22.00;99.90;;;;;;5029742;28;20279;-72
2022/12/26 13:24:24;;;;;;;;;;;21.90;99.90;;;;;;5023851;28;19921;-72
2022/12/26 13:27:00;;;;;;;;;;;21.90;99.90;;;;;;5026004;28;19917;-69
2022/12/26 13:29:52;;;;;;;;;;;21.80;99.90;;;;;;5024399;28;19917;-74
2022/12/26 13:32:23;;;;;;;;;;;21.70;99.90;;;;;;5014599;28;20254;-69
2022/12/26 13:34:51;;;;;;;;;;;21.60;99.90;;;;;;5019881;28;19971;-77
2022/12/26 13:37:35;;;;;;;;;;;21.60;99.90;;;;;;5025055;28;19967;-76
2022/12/26 13:40:05;;;;;;;;;;;21.50;99.90;;;;;;5032768;28;19956;-78
2022/12/26 13:45:37;;;;;;;;;;;21.40;99.90;;;;;;5014022;28;19995;-72
2022/12/26 13:48:15;;;;;;;;;;;21.30;99.90;;;;;;5025652;28;19909;-77
2022/12/26 13:50:48;;;;;;;;;;;21.30;99.90;;;;;;5016258;28;19917;-76
2022/12/26 13:53:24;;;;;;;;;;;21.20;99.90;;;;;;5021589;28;20402;-76
2022/12/26 13:55:52;;;;;;;;;;;21.20;99.90;;;;;;5029016;28;19913;-69
2022/12/26 13:58:36;;;;;;;;;;;21.10;99.90;;;;;;5024066;28;20008;-71
2022/12/26 14:01:03;;;;;;;;;;;21.10;99.90;;;;;;5027991;28;19996;-76
2022/12/26 14:03:29;;;;;;;;;;;21.00;99.90;;;;;;5012779;28;19917;-75
2022/12/26 14:05:59;;;;;;;;;;;21.00;99.90;;;;;;5023221;28;20275;-72
2022/12/26 14:08:28;;;;;;;;;;;20.90;99.90;;;;;;5017028;28;19975;-75
2022/12/26 14:10:57;;;;;;;;;;;20.90;99.90;;;;;;5026780;28;19917;-75
2022/12/26 14:13:46;;;;;;;;;;;20.80;99.90;;;;;;5020380;28;19941;-70
2022/12/26 14:16:25;;;;;;;;;;;20.80;99.90;;;;;;5020186;28;19912;-72
2022/12/26 14:18:56;;;;;;;;;;;20.80;99.90;;;;;;5020798;28;19964;-76
2022/12/26 14:21:38;;;;;;;;;;;20.70;99.90;;;;;;5016966;28;19928;-70
2022/12/26 14:24:08;;;;;;;;;;;20.60;99.90;;;;;;4992897;28;20447;-82
2022/12/26 14:26:47;;;;;;;;;;;20.60;99.90;;;;;;5000832;28;21849;-73
2022/12/26 14:29:20;;;;;;;;;;;20.60;99.90;;;;;;4998838;28;20339;-73
2022/12/26 14:31:58;;;;;;;;;;;20.50;99.90;;;;;;4997752;28;19922;-76
2022/12/26 14:34:45;;;;;;;;;;;20.40;99.90;;;;;;4991235;28;20000;-74
2022/12/26 14:37:27;;;;;;;;;;;20.40;99.90;;;;;;5002388;28;19928;-71
2022/12/26 14:40:12;;;;;;;;;;;20.30;99.90;;;;;;5001747;28;19918;-76
2022/12/26 14:43:12;;;;;;;;;;;20.20;99.90;;;;;;5000786;28;19936;-73
2022/12/26 14:45:41;;;;;;;;;;;20.20;99.90;;;;;;4993440;28;19989;-75
2022/12/26 14:48:17;;;;;;;;;;;20.10;99.90;;;;;;4996457;28;19914;-76
2022/12/26 14:50:47;;;;;;;;;;;20.10;99.90;;;;;;4997088;28;19917;-75
2022/12/26 14:53:22;;;;;;;;;;;20.10;99.90;;;;;;5006617;28;20057;-75
2022/12/26 14:55:56;;;;;;;;;;;20.10;99.90;;;;;;5006411;28;20011;-75
2022/12/26 14:58:32;;;;;;;;;;;20.10;99.90;;;;;;4997666;28;20507;-71
2022/12/26 15:01:17;;;;;;;;;;;20.00;99.90;;;;;;4999442;28;19913;-70
2022/12/26 15:04:02;;;;;;;;;;;20.00;99.90;;;;;;5000345;28;19917;-73
2022/12/26 15:06:47;;;;;;;;;;;19.90;99.90;;;;;;5005550;28;20372;-71
2022/12/26 15:09:28;;;;;;;;;;;19.80;99.90;;;;;;5005573;28;19956;-72
2022/12/26 15:12:26;;;;;;;;;;;19.80;99.90;;;;;;5001104;28;22448;-70
2022/12/26 15:15:11;;;;;;;;;;;19.80;99.90;;;;;;5001304;28;19913;-76
2022/12/26 15:17:41;;;;;;;;;;;19.70;99.90;;;;;;5007324;28;20383;-69
2022/12/26 15:20:14;;;;;;;;;;;19.60;99.90;;;;;;5007719;28;19920;-76
2022/12/26 15:22:58;;;;;;;;;;;19.60;99.90;;;;;;5005001;28;20035;-70
2022/12/26 15:25:28;;;;;;;;;;;19.50;99.90;;;;;;4995753;28;20261;-76
2022/12/26 15:28:01;;;;;;;;;;;19.50;99.90;;;;;;5000724;28;20264;-71
2022/12/26 15:30:27;;;;;;;;;;;19.40;99.90;;;;;;5007577;28;20331;-75
2022/12/26 15:33:02;;;;;;;;;;;19.40;99.90;;;;;;4999963;28;20008;-68
2022/12/26 15:35:46;;;;;;;;;;;19.40;99.90;;;;;;5006878;28;20005;-79
2022/12/26 15:38:31;;;;;;;;;;;19.40;99.90;;;;;;5000993;28;20020;-72
2022/12/26 15:41:13;;;;;;;;;;;19.40;99.90;;;;;;4994087;28;19920;-70
2022/12/26 15:43:59;;;;;;;;;;;19.40;99.90;;;;;;4995689;28;19921;-71
2022/12/26 15:46:26;;;;;;;;;;;19.40;99.90;;;;;;4966380;28;19913;-77
2022/12/26 15:49:12;;;;;;;;;;;19.40;99.90;;;;;;5009316;28;19918;-75
2022/12/26 15:51:42;;;;;;;;;;;19.40;99.90;;;;;;5005300;28;19963;-77
2022/12/26 15:54:11;;;;;;;;;;;19.40;99.90;;;;;;5009960;28;19917;-76
2022/12/26 15:56:52;;;;;;;;;;;19.30;99.90;;;;;;5012372;28;19922;-74
2022/12/26 15:59:37;;;;;;;;;;;19.30;99.90;;;;;;5007664;28;19917;-76
2022/12/26 16:02:10;;;;;;;;;;;19.20;99.90;;;;;;5010149;28;19917;-77
2022/12/26 16:04:37;;;;;;;;;;;19.20;99.90;;;;;;5011192;28;19918;-79
2022/12/26 16:07:22;;;;;;;;;;;19.10;99.90;;;;;;4994391;28;19914;-79
2022/12/26 16:09:53;;;;;;;;;;;19.10;99.90;;;;;;5009888;28;20264;-73
2022/12/26 16:12:22;;;;;;;;;;;19.00;99.90;;;;;;5002615;28;19917;-75
2022/12/26 16:14:49;;;;;;;;;;;19.00;99.90;;;;;;5009961;28;19965;-78
2022/12/26 16:17:15;;;;;;;;;;;19.00;99.90;;;;;;5011952;28;19926;-75
2022/12/26 16:19:43;;;;;;;;;;;19.00;99.90;;;;;;5010763;28;19914;-74
2022/12/26 16:25:00;;;;;;;;;;;18.90;99.90;;;;;;5026032;28;19958;-70
2022/12/26 16:27:26;;;;;;;;;;;18.90;99.90;;;;;;5031734;28;19967;-69
2022/12/26 16:29:58;;;;;;;;;;;18.80;99.90;;;;;;5027272;28;19929;-69
2022/12/26 16:32:29;;;;;;;;;;;18.80;99.90;;;;;;5029674;28;19917;-75
2022/12/26 16:34:57;;;;;;;;;;;18.80;99.90;;;;;;5027152;28;20260;-69
2022/12/26 16:37:25;;;;;;;;;;;18.80;99.90;;;;;;5015020;28;19936;-74
2022/12/26 16:40:16;;;;;;;;;;;18.70;99.90;;;;;;5026836;28;20379;-71
2022/12/26 16:42:46;;;;;;;;;;;18.70;99.90;;;;;;5017189;28;19913;-68
2022/12/26 16:45:18;;;;;;;;;;;18.70;99.90;;;;;;5019727;28;20322;-75
2022/12/26 16:47:45;;;;;;;;;;;18.60;99.90;;;;;;5028836;28;20332;-74